sensor_id;sensor_type;location;lat;lon;timestamp;temperature;humidity
7143;DHT22;3613;48.902;9.204;2022-09-09T00:00:58;13.50;99.90
7143;DHT22;3613;48.902;9.204;2022-09-09T00:03:30;13.60;99.90
7143;DHT22;3613;48.902;9.204;2022-09-09T00:08:51;13.70;99.90
7143;DHT22;3613;48.902;9.204;2022-09-09T00:11:26;13.80;99.90
7143;DHT22;3613;48.902;9.204;2022-09-09T00:13:57;13.80;99.90
7143;DHT22;3613;48.902;9.204;2022-09-09T00:16:28;13.80;99.90
7143;DHT22;3613;48.902;9.204;2022-09-09T00:24:42;14.00;99.90
7143;DHT22;3613;48.902;9.204;2022-09-09T00:27:30;14.00;99.90
7143;DHT22;3613;48.902;9.204;2022-09-09T00:30:19;14.00;99.90
7143;DHT22;3613;48.902;9.204;2022-09-09T00:32:47;14.10;99.90
7143;DHT22;3613;48.902;9.204;2022-09-09T00:35:32;14.30;99.90
7143;DHT22;3613;48.902;9.204;2022-09-09T00:38:21;14.30;99.90
7143;DHT22;3613;48.902;9.204;2022-09-09T00:40:55;14.40;99.90
7143;DHT22;3613;48.902;9.204;2022-09-09T00:43:26;14.40;99.90
7143;DHT22;3613;48.902;9.204;2022-09-09T00:46:17;14.40;99.90
7143;DHT22;3613;48.902;9.204;2022-09-09T00:49:09;14.30;99.90
7143;DHT22;3613;48.902;9.204;2022-09-09T00:51:43;14.30;99.90
7143;DHT22;3613;48.902;9.204;2022-09-09T00:54:43;14.30;99.90
7143;DHT22;3613;48.902;9.204;2022-09-09T00:57:29;14.30;99.90
7143;DHT22;3613;48.902;9.204;2022-09-09T01:12:11;14.30;99.90
7143;DHT22;3613;48.902;9.204;2022-09-09T01:17:19;14.30;99.90
7143;DHT22;3613;48.902;9.204;2022-09-09T01:27:55;14.20;99.90
7143;DHT22;3613;48.902;9.204;2022-09-09T01:30:22;14.20;99.90
7143;DHT22;3613;48.902;9.204;2022-09-09T01:32:52;14.20;99.90
7143;DHT22;3613;48.902;9.204;2022-09-09T01:35:26;14.10;99.90
7143;DHT22;3613;48.902;9.204;2022-09-09T01:37:53;14.10;99.90
7143;DHT22;3613;48.902;9.204;2022-09-09T01:40:19;14.10;99.90
7143;DHT22;3613;48.902;9.204;2022-09-09T01:42:44;14.10;99.90
7143;DHT22;3613;48.902;9.204;2022-09-09T01:45:10;14.20;99.90
7143;DHT22;3613;48.902;9.204;2022-09-09T01:47:36;14.20;99.90
7143;DHT22;3613;48.902;9.204;2022-09-09T01:50:02;14.20;99.90
7143;DHT22;3613;48.902;9.204;2022-09-09T01:52:29;14.20;99.90
7143;DHT22;3613;48.902;9.204;2022-09-09T01:54:55;14.20;99.90
7143;DHT22;3613;48.902;9.204;2022-09-09T01:57:26;14.10;99.90
7143;DHT22;3613;48.902;9.204;2022-09-09T01:59:56;14.20;99.90
7143;DHT22;3613;48.902;9.204;2022-09-09T02:10:31;14.10;99.90
7143;DHT22;3613;48.902;9.204;2022-09-09T02:13:04;14.00;99.90
7143;DHT22;3613;48.902;9.204;2022-09-09T02:18:14;13.90;99.90
7143;DHT22;3613;48.902;9.204;2022-09-09T02:20:43;13.90;99.90
7143;DHT22;3613;48.902;9.204;2022-09-09T02:23:12;13.80;99.90
7143;DHT22;3613;48.902;9.204;2022-09-09T02:25:40;13.70;99.90
7143;DHT22;3613;48.902;9.204;2022-09-09T02:28:08;13.70;99.90
7143;DHT22;3613;48.902;9.204;2022-09-09T02:30:36;13.50;99.90
7143;DHT22;3613;48.902;9.204;2022-09-09T02:33:04;13.60;99.90
7143;DHT22;3613;48.902;9.204;2022-09-09T02:35:32;13.40;99.90
7143;DHT22;3613;48.902;9.204;2022-09-09T02:38:10;13.40;99.90
7143;DHT22;3613;48.902;9.204;2022-09-09T02:40:40;13.30;99.90
7143;DHT22;3613;48.902;9.204;2022-09-09T02:43:05;13.20;99.90
7143;DHT22;3613;48.902;9.204;2022-09-09T02:51:28;13.20;99.90
7143;DHT22;3613;48.902;9.204;2022-09-09T02:54:27;13.20;99.90
7143;DHT22;3613;48.902;9.204;2022-09-09T02:57:10;13.10;99.90
7143;DHT22;3613;48.902;9.204;2022-09-09T02:59:39;13.10;99.90
7143;DHT22;3613;48.902;9.204;2022-09-09T03:02:05;15.60;99.90
7143;DHT22;3613;48.902;9.204;2022-09-09T03:04:31;13.00;99.90
7143;DHT22;3613;48.902;9.204;2022-09-09T03:06:58;12.90;99.90
7143;DHT22;3613;48.902;9.204;2022-09-09T03:09:24;13.00;99.90
7143;DHT22;3613;48.902;9.204;2022-09-09T03:11:52;13.00;99.90
7143;DHT22;3613;48.902;9.204;2022-09-09T03:14:18;13.00;99.90
7143;DHT22;3613;48.902;9.204;2022-09-09T03:16:49;12.90;99.90
7143;DHT22;3613;48.902;9.204;2022-09-09T03:19:14;12.80;99.90
7143;DHT22;3613;48.902;9.204;2022-09-09T03:21:40;12.80;99.90
7143;DHT22;3613;48.902;9.204;2022-09-09T03:24:05;12.80;99.90
7143;DHT22;3613;48.902;9.204;2022-09-09T03:26:37;12.70;99.90
7143;DHT22;3613;48.902;9.204;2022-09-09T03:29:06;12.70;99.90
7143;DHT22;3613;48.902;9.204;2022-09-09T03:31:33;12.70;99.90
7143;DHT22;3613;48.902;9.204;2022-09-09T03:33:58;12.70;99.90
7143;DHT22;3613;48.902;9.204;2022-09-09T03:36:25;12.60;99.90
7143;DHT22;3613;48.902;9.204;2022-09-09T03:38:52;12.60;99.90
7143;DHT22;3613;48.902;9.204;2022-09-09T03:41:19;12.60;99.90
7143;DHT22;3613;48.902;9.204;2022-09-09T03:43:45;12.60;99.90
7143;DHT22;3613;48.902;9.204;2022-09-09T03:46:10;12.60;99.90
7143;DHT22;3613;48.902;9.204;2022-09-09T03:48:38;12.60;99.90
7143;DHT22;3613;48.902;9.204;2022-09-09T03:51:04;12.70;99.90
7143;DHT22;3613;48.902;9.204;2022-09-09T03:53:30;12.90;99.90
7143;DHT22;3613;48.902;9.204;2022-09-09T03:55:59;13.10;99.90
7143;DHT22;3613;48.902;9.204;2022-09-09T03:58:27;13.10;99.90
7143;DHT22;3613;48.902;9.204;2022-09-09T04:00:58;13.20;99.90
7143;DHT22;3613;48.902;9.204;2022-09-09T04:03:29;13.30;99.90
7143;DHT22;3613;48.902;9.204;2022-09-09T04:05:57;13.30;99.90
7143;DHT22;3613;48.902;9.204;2022-09-09T04:08:23;13.40;99.90
7143;DHT22;3613;48.902;9.204;2022-09-09T04:10:53;13.40;99.90
7143;DHT22;3613;48.902;9.204;2022-09-09T04:13:24;13.60;99.90
7143;DHT22;3613;48.902;9.204;2022-09-09T04:15:55;13.80;99.90
7143;DHT22;3613;48.902;9.204;2022-09-09T04:18:21;13.90;99.90
7143;DHT22;3613;48.902;9.204;2022-09-09T04:20:48;14.00;99.90
7143;DHT22;3613;48.902;9.204;2022-09-09T04:23:14;13.90;99.90
7143;DHT22;3613;48.902;9.204;2022-09-09T04:25:48;13.90;99.90
7143;DHT22;3613;48.902;9.204;2022-09-09T04:28:15;14.10;99.90
7143;DHT22;3613;48.902;9.204;2022-09-09T04:30:43;14.10;99.90
7143;DHT22;3613;48.902;9.204;2022-09-09T04:33:12;14.10;99.90
7143;DHT22;3613;48.902;9.204;2022-09-09T04:35:48;14.10;99.90
7143;DHT22;3613;48.902;9.204;2022-09-09T04:38:15;14.10;99.90
7143;DHT22;3613;48.902;9.204;2022-09-09T04:40:46;14.10;99.90
7143;DHT22;3613;48.902;9.204;2022-09-09T04:43:12;14.10;99.90
7143;DHT22;3613;48.902;9.204;2022-09-09T04:45:43;16.40;99.90
7143;DHT22;3613;48.902;9.204;2022-09-09T04:48:11;14.10;99.90
7143;DHT22;3613;48.902;9.204;2022-09-09T04:50:37;14.20;99.90
7143;DHT22;3613;48.902;9.204;2022-09-09T04:53:03;14.30;99.90
7143;DHT22;3613;48.902;9.204;2022-09-09T04:55:33;14.30;99.90
7143;DHT22;3613;48.902;9.204;2022-09-09T04:58:04;14.40;99.90
7143;DHT22;3613;48.902;9.204;2022-09-09T05:00:33;14.50;99.90
7143;DHT22;3613;48.902;9.204;2022-09-09T05:03:04;14.50;99.90
7143;DHT22;3613;48.902;9.204;2022-09-09T05:05:31;14.50;99.90
7143;DHT22;3613;48.902;9.204;2022-09-09T05:08:06;14.40;99.90
7143;DHT22;3613;48.902;9.204;2022-09-09T05:10:37;14.40;99.90
7143;DHT22;3613;48.902;9.204;2022-09-09T05:13:07;14.40;99.90
7143;DHT22;3613;48.902;9.204;2022-09-09T05:15:35;14.40;99.90
7143;DHT22;3613;48.902;9.204;2022-09-09T05:18:01;14.40;99.90
7143;DHT22;3613;48.902;9.204;2022-09-09T05:20:30;14.70;99.90
7143;DHT22;3613;48.902;9.204;2022-09-09T05:22:56;15.20;99.90
7143;DHT22;3613;48.902;9.204;2022-09-09T05:25:23;15.30;99.90
7143;DHT22;3613;48.902;9.204;2022-09-09T05:27:51;15.30;99.90
7143;DHT22;3613;48.902;9.204;2022-09-09T05:30:20;15.30;99.90
7143;DHT22;3613;48.902;9.204;2022-09-09T05:32:47;15.30;99.90
7143;DHT22;3613;48.902;9.204;2022-09-09T05:35:15;15.30;99.90
7143;DHT22;3613;48.902;9.204;2022-09-09T05:37:47;15.30;99.90
7143;DHT22;3613;48.902;9.204;2022-09-09T05:40:13;15.30;99.90
7143;DHT22;3613;48.902;9.204;2022-09-09T05:42:38;15.40;99.90
7143;DHT22;3613;48.902;9.204;2022-09-09T05:45:05;15.50;99.90
7143;DHT22;3613;48.902;9.204;2022-09-09T05:47:33;15.60;99.90
7143;DHT22;3613;48.902;9.204;2022-09-09T05:49:58;15.70;99.90
7143;DHT22;3613;48.902;9.204;2022-09-09T05:52:26;15.90;99.90
7143;DHT22;3613;48.902;9.204;2022-09-09T05:54:52;15.90;99.90
7143;DHT22;3613;48.902;9.204;2022-09-09T05:57:19;16.10;99.90
7143;DHT22;3613;48.902;9.204;2022-09-09T05:59:47;16.00;99.90
7143;DHT22;3613;48.902;9.204;2022-09-09T06:02:15;16.10;99.90
7143;DHT22;3613;48.902;9.204;2022-09-09T06:04:41;16.10;99.90
7143;DHT22;3613;48.902;9.204;2022-09-09T06:07:07;16.30;99.90
7143;DHT22;3613;48.902;9.204;2022-09-09T06:09:33;16.30;99.90
7143;DHT22;3613;48.902;9.204;2022-09-09T06:12:01;17.20;99.90
7143;DHT22;3613;48.902;9.204;2022-09-09T06:14:30;17.60;99.90
7143;DHT22;3613;48.902;9.204;2022-09-09T06:16:55;17.70;99.90
7143;DHT22;3613;48.902;9.204;2022-09-09T06:19:22;17.70;99.90
7143;DHT22;3613;48.902;9.204;2022-09-09T06:21:49;17.60;99.90
7143;DHT22;3613;48.902;9.204;2022-09-09T06:24:17;17.50;99.90
7143;DHT22;3613;48.902;9.204;2022-09-09T06:26:45;17.30;99.90
7143;DHT22;3613;48.902;9.204;2022-09-09T06:29:13;17.30;99.90
7143;DHT22;3613;48.902;9.204;2022-09-09T06:31:38;17.30;99.90
7143;DHT22;3613;48.902;9.204;2022-09-09T06:34:06;17.20;99.90
7143;DHT22;3613;48.902;9.204;2022-09-09T06:36:34;17.10;99.90
7143;DHT22;3613;48.902;9.204;2022-09-09T06:39:02;17.10;99.90
7143;DHT22;3613;48.902;9.204;2022-09-09T06:41:32;17.30;99.90
7143;DHT22;3613;48.902;9.204;2022-09-09T06:43:58;17.30;99.90
7143;DHT22;3613;48.902;9.204;2022-09-09T06:46:33;17.40;99.90
7143;DHT22;3613;48.902;9.204;2022-09-09T06:48:59;17.60;99.90
7143;DHT22;3613;48.902;9.204;2022-09-09T06:51:28;17.80;99.90
7143;DHT22;3613;48.902;9.204;2022-09-09T06:53:55;17.80;99.90
7143;DHT22;3613;48.902;9.204;2022-09-09T06:56:33;18.00;99.90
7143;DHT22;3613;48.902;9.204;2022-09-09T06:59:02;18.20;99.90
7143;DHT22;3613;48.902;9.204;2022-09-09T07:01:34;18.30;99.90
7143;DHT22;3613;48.902;9.204;2022-09-09T07:04:03;18.60;99.90
7143;DHT22;3613;48.902;9.204;2022-09-09T07:06:35;18.80;99.90
7143;DHT22;3613;48.902;9.204;2022-09-09T07:09:06;19.10;99.90
7143;DHT22;3613;48.902;9.204;2022-09-09T07:11:51;19.30;99.90
7143;DHT22;3613;48.902;9.204;2022-09-09T07:14:18;19.40;99.90
7143;DHT22;3613;48.902;9.204;2022-09-09T07:16:45;19.40;99.90
7143;DHT22;3613;48.902;9.204;2022-09-09T07:19:11;19.50;99.90
7143;DHT22;3613;48.902;9.204;2022-09-09T07:21:37;19.50;99.90
7143;DHT22;3613;48.902;9.204;2022-09-09T07:24:03;19.60;99.90
7143;DHT22;3613;48.902;9.204;2022-09-09T07:26:33;19.70;99.90
7143;DHT22;3613;48.902;9.204;2022-09-09T07:28:59;20.00;99.90
7143;DHT22;3613;48.902;9.204;2022-09-09T07:31:33;20.30;99.90
7143;DHT22;3613;48.902;9.204;2022-09-09T07:34:00;20.60;99.90
7143;DHT22;3613;48.902;9.204;2022-09-09T07:36:30;20.80;99.90
7143;DHT22;3613;48.902;9.204;2022-09-09T07:39:04;20.90;99.90
7143;DHT22;3613;48.902;9.204;2022-09-09T07:41:36;20.90;99.90
7143;DHT22;3613;48.902;9.204;2022-09-09T07:44:30;21.00;99.90
7143;DHT22;3613;48.902;9.204;2022-09-09T07:46:57;21.10;99.90
7143;DHT22;3613;48.902;9.204;2022-09-09T07:49:23;21.20;99.90
7143;DHT22;3613;48.902;9.204;2022-09-09T07:51:49;21.40;99.90
7143;DHT22;3613;48.902;9.204;2022-09-09T07:54:16;21.60;99.90
7143;DHT22;3613;48.902;9.204;2022-09-09T07:56:46;21.60;99.90
7143;DHT22;3613;48.902;9.204;2022-09-09T07:59:12;21.60;99.90
7143;DHT22;3613;48.902;9.204;2022-09-09T08:01:46;21.70;99.90
7143;DHT22;3613;48.902;9.204;2022-09-09T08:04:19;22.70;99.90
7143;DHT22;3613;48.902;9.204;2022-09-09T08:06:47;24.80;99.90
7143;DHT22;3613;48.902;9.204;2022-09-09T08:09:16;26.30;99.90
7143;DHT22;3613;48.902;9.204;2022-09-09T08:11:45;27.30;99.90
7143;DHT22;3613;48.902;9.204;2022-09-09T08:14:11;27.80;99.90
7143;DHT22;3613;48.902;9.204;2022-09-09T08:16:43;28.60;99.90
7143;DHT22;3613;48.902;9.204;2022-09-09T08:19:12;28.90;97.50
7143;DHT22;3613;48.902;9.204;2022-09-09T08:21:42;29.30;96.40
7143;DHT22;3613;48.902;9.204;2022-09-09T08:24:09;29.30;94.80
7143;DHT22;3613;48.902;9.204;2022-09-09T08:26:40;29.60;94.60
7143;DHT22;3613;48.902;9.204;2022-09-09T08:29:08;29.90;93.10
7143;DHT22;3613;48.902;9.204;2022-09-09T08:31:49;29.80;92.70
7143;DHT22;3613;48.902;9.204;2022-09-09T08:34:16;29.90;92.40
7143;DHT22;3613;48.902;9.204;2022-09-09T08:36:46;30.00;91.70
7143;DHT22;3613;48.902;9.204;2022-09-09T08:39:14;29.70;90.90
7143;DHT22;3613;48.902;9.204;2022-09-09T08:57:43;28.20;92.90
7143;DHT22;3613;48.902;9.204;2022-09-09T09:00:11;28.50;92.90
7143;DHT22;3613;48.902;9.204;2022-09-09T09:05:59;29.20;91.70
7143;DHT22;3613;48.902;9.204;2022-09-09T09:11:11;29.90;90.50
7143;DHT22;3613;48.902;9.204;2022-09-09T09:13:58;28.80;91.10
7143;DHT22;3613;48.902;9.204;2022-09-09T09:19:33;27.90;91.90
7143;DHT22;3613;48.902;9.204;2022-09-09T09:28:18;25.40;93.00
7143;DHT22;3613;48.902;9.204;2022-09-09T09:36:14;23.90;96.70
7143;DHT22;3613;48.902;9.204;2022-09-09T09:39:21;24.00;95.70
7143;DHT22;3613;48.902;9.204;2022-09-09T09:41:47;23.80;96.30
7143;DHT22;3613;48.902;9.204;2022-09-09T09:44:31;23.70;96.70
7143;DHT22;3613;48.902;9.204;2022-09-09T09:47:16;23.70;97.50
7143;DHT22;3613;48.902;9.204;2022-09-09T09:49:54;24.40;96.70
7143;DHT22;3613;48.902;9.204;2022-09-09T09:52:23;25.20;95.50
7143;DHT22;3613;48.902;9.204;2022-09-09T09:54:52;25.90;94.00
7143;DHT22;3613;48.902;9.204;2022-09-09T09:57:26;26.40;93.30
7143;DHT22;3613;48.902;9.204;2022-09-09T10:00:14;26.60;93.40
7143;DHT22;3613;48.902;9.204;2022-09-09T10:02:41;26.70;93.90
7143;DHT22;3613;48.902;9.204;2022-09-09T10:05:23;26.90;93.60
7143;DHT22;3613;48.902;9.204;2022-09-09T10:08:10;26.90;94.10
7143;DHT22;3613;48.902;9.204;2022-09-09T10:16:35;26.90;92.80
7143;DHT22;3613;48.902;9.204;2022-09-09T10:19:05;26.70;91.60
7143;DHT22;3613;48.902;9.204;2022-09-09T10:30:18;27.20;90.80
7143;DHT22;3613;48.902;9.204;2022-09-09T10:33:09;27.40;90.20
7143;DHT22;3613;48.902;9.204;2022-09-09T10:36:18;27.30;90.00
7143;DHT22;3613;48.902;9.204;2022-09-09T10:39:37;27.70;87.80
7143;DHT22;3613;48.902;9.204;2022-09-09T10:44:47;28.10;86.90
7143;DHT22;3613;48.902;9.204;2022-09-09T10:50:37;27.00;87.50
7143;DHT22;3613;48.902;9.204;2022-09-09T10:53:13;26.40;90.30
7143;DHT22;3613;48.902;9.204;2022-09-09T10:55:48;25.70;90.70
7143;DHT22;3613;48.902;9.204;2022-09-09T10:58:30;25.30;91.70
7143;DHT22;3613;48.902;9.204;2022-09-09T11:01:06;24.90;92.60
7143;DHT22;3613;48.902;9.204;2022-09-09T11:03:36;24.40;93.40
7143;DHT22;3613;48.902;9.204;2022-09-09T11:06:09;23.90;94.00
7143;DHT22;3613;48.902;9.204;2022-09-09T11:08:38;23.50;95.40
7143;DHT22;3613;48.902;9.204;2022-09-09T11:11:18;23.20;97.00
7143;DHT22;3613;48.902;9.204;2022-09-09T11:13:46;22.90;99.30
7143;DHT22;3613;48.902;9.204;2022-09-09T11:19:04;22.30;99.90
7143;DHT22;3613;48.902;9.204;2022-09-09T11:21:40;21.90;99.90
7143;DHT22;3613;48.902;9.204;2022-09-09T11:24:13;21.70;99.90
7143;DHT22;3613;48.902;9.204;2022-09-09T11:26:58;21.30;99.90
7143;DHT22;3613;48.902;9.204;2022-09-09T11:38:21;18.40;99.90
7143;DHT22;3613;48.902;9.204;2022-09-09T11:41:02;18.30;99.90
7143;DHT22;3613;48.902;9.204;2022-09-09T11:43:42;18.40;99.90
7143;DHT22;3613;48.902;9.204;2022-09-09T11:46:12;18.40;99.90
7143;DHT22;3613;48.902;9.204;2022-09-09T11:48:43;18.50;99.90
7143;DHT22;3613;48.902;9.204;2022-09-09T11:51:13;18.70;99.90
7143;DHT22;3613;48.902;9.204;2022-09-09T11:53:56;19.10;99.90
7143;DHT22;3613;48.902;9.204;2022-09-09T11:56:44;19.50;99.90
7143;DHT22;3613;48.902;9.204;2022-09-09T11:59:25;19.80;99.90
7143;DHT22;3613;48.902;9.204;2022-09-09T12:06:52;22.10;99.90
7143;DHT22;3613;48.902;9.204;2022-09-09T12:12:36;23.50;99.90
7143;DHT22;3613;48.902;9.204;2022-09-09T12:17:45;23.90;99.90
7143;DHT22;3613;48.902;9.204;2022-09-09T12:20:51;23.90;99.90
7143;DHT22;3613;48.902;9.204;2022-09-09T12:23:24;23.90;99.90
7143;DHT22;3613;48.902;9.204;2022-09-09T12:26:01;24.40;99.90
7143;DHT22;3613;48.902;9.204;2022-09-09T12:33:53;29.10;94.30
7143;DHT22;3613;48.902;9.204;2022-09-09T12:36:25;29.70;92.10
7143;DHT22;3613;48.902;9.204;2022-09-09T12:38:59;29.90;90.20
7143;DHT22;3613;48.902;9.204;2022-09-09T12:41:35;30.10;87.80
7143;DHT22;3613;48.902;9.204;2022-09-09T12:44:08;30.20;82.90
7143;DHT22;3613;48.902;9.204;2022-09-09T12:46:41;29.70;87.90
7143;DHT22;3613;48.902;9.204;2022-09-09T12:49:30;29.10;88.40
7143;DHT22;3613;48.902;9.204;2022-09-09T12:52:03;29.50;89.60
7143;DHT22;3613;48.902;9.204;2022-09-09T12:54:32;29.60;87.90
7143;DHT22;3613;48.902;9.204;2022-09-09T12:57:01;28.80;87.20
7143;DHT22;3613;48.902;9.204;2022-09-09T12:59:42;27.60;88.00
7143;DHT22;3613;48.902;9.204;2022-09-09T13:02:44;27.10;89.80
7143;DHT22;3613;48.902;9.204;2022-09-09T13:05:34;27.90;88.50
7143;DHT22;3613;48.902;9.204;2022-09-09T13:08:06;28.50;86.80
7143;DHT22;3613;48.902;9.204;2022-09-09T13:10:35;27.90;87.80
7143;DHT22;3613;48.902;9.204;2022-09-09T13:13:14;28.50;86.40
7143;DHT22;3613;48.902;9.204;2022-09-09T13:15:54;29.50;84.40
7143;DHT22;3613;48.902;9.204;2022-09-09T13:18:23;30.40;81.60
7143;DHT22;3613;48.902;9.204;2022-09-09T13:20:52;29.40;81.20
7143;DHT22;3613;48.902;9.204;2022-09-09T13:23:20;28.40;84.10
7143;DHT22;3613;48.902;9.204;2022-09-09T13:25:57;28.40;84.70
7143;DHT22;3613;48.902;9.204;2022-09-09T13:28:26;29.30;83.30
7143;DHT22;3613;48.902;9.204;2022-09-09T13:31:20;30.00;82.10
7143;DHT22;3613;48.902;9.204;2022-09-09T13:33:49;30.00;81.60
7143;DHT22;3613;48.902;9.204;2022-09-09T13:36:15;30.90;80.30
7143;DHT22;3613;48.902;9.204;2022-09-09T13:38:56;32.50;78.40
7143;DHT22;3613;48.902;9.204;2022-09-09T13:41:24;32.90;72.90
7143;DHT22;3613;48.902;9.204;2022-09-09T13:43:51;32.70;72.20
7143;DHT22;3613;48.902;9.204;2022-09-09T13:46:37;32.10;71.10
7143;DHT22;3613;48.902;9.204;2022-09-09T13:49:20;31.00;71.90
7143;DHT22;3613;48.902;9.204;2022-09-09T13:51:50;29.70;74.80
7143;DHT22;3613;48.902;9.204;2022-09-09T13:54:20;29.10;76.60
7143;DHT22;3613;48.902;9.204;2022-09-09T13:56:46;28.40;77.80
7143;DHT22;3613;48.902;9.204;2022-09-09T13:59:17;27.50;80.00
7143;DHT22;3613;48.902;9.204;2022-09-09T14:01:47;26.80;81.70
7143;DHT22;3613;48.902;9.204;2022-09-09T14:04:17;26.10;82.60
7143;DHT22;3613;48.902;9.204;2022-09-09T14:06:42;25.80;85.10
7143;DHT22;3613;48.902;9.204;2022-09-09T14:09:12;25.70;84.80
7143;DHT22;3613;48.902;9.204;2022-09-09T14:11:38;25.70;85.50
7143;DHT22;3613;48.902;9.204;2022-09-09T14:14:09;25.40;86.90
7143;DHT22;3613;48.902;9.204;2022-09-09T14:16:34;25.20;87.90
7143;DHT22;3613;48.902;9.204;2022-09-09T14:19:00;25.20;87.60
7143;DHT22;3613;48.902;9.204;2022-09-09T14:21:27;24.50;88.30
7143;DHT22;3613;48.902;9.204;2022-09-09T14:23:55;24.20;90.00
7143;DHT22;3613;48.902;9.204;2022-09-09T14:26:24;24.10;90.30
7143;DHT22;3613;48.902;9.204;2022-09-09T14:28:52;24.20;90.80
7143;DHT22;3613;48.902;9.204;2022-09-09T14:31:18;24.20;91.00
7143;DHT22;3613;48.902;9.204;2022-09-09T14:33:46;24.00;90.20
7143;DHT22;3613;48.902;9.204;2022-09-09T14:36:12;24.10;90.30
7143;DHT22;3613;48.902;9.204;2022-09-09T14:38:38;24.30;90.80
7143;DHT22;3613;48.902;9.204;2022-09-09T14:41:11;24.40;91.40
7143;DHT22;3613;48.902;9.204;2022-09-09T14:43:40;24.20;89.70
7143;DHT22;3613;48.902;9.204;2022-09-09T14:46:13;24.10;90.70
7143;DHT22;3613;48.902;9.204;2022-09-09T14:48:39;24.00;90.80
7143;DHT22;3613;48.902;9.204;2022-09-09T14:51:12;23.90;91.00
7143;DHT22;3613;48.902;9.204;2022-09-09T14:53:41;24.00;90.10
7143;DHT22;3613;48.902;9.204;2022-09-09T14:56:19;24.00;90.10
7143;DHT22;3613;48.902;9.204;2022-09-09T14:58:46;24.00;90.40
7143;DHT22;3613;48.902;9.204;2022-09-09T15:01:15;23.90;91.00
7143;DHT22;3613;48.902;9.204;2022-09-09T15:03:52;23.70;91.20
7143;DHT22;3613;48.902;9.204;2022-09-09T15:06:21;23.60;91.70
7143;DHT22;3613;48.902;9.204;2022-09-09T15:08:47;23.50;91.80
7143;DHT22;3613;48.902;9.204;2022-09-09T15:11:15;23.40;91.80
7143;DHT22;3613;48.902;9.204;2022-09-09T15:13:43;23.40;92.20
7143;DHT22;3613;48.902;9.204;2022-09-09T15:16:17;23.30;91.90
7143;DHT22;3613;48.902;9.204;2022-09-09T15:18:44;23.30;92.10
7143;DHT22;3613;48.902;9.204;2022-09-09T15:21:20;22.90;92.10
7143;DHT22;3613;48.902;9.204;2022-09-09T15:23:47;22.80;92.90
7143;DHT22;3613;48.902;9.204;2022-09-09T15:26:17;22.80;92.80
7143;DHT22;3613;48.902;9.204;2022-09-09T15:28:46;22.80;93.00
7143;DHT22;3613;48.902;9.204;2022-09-09T15:33:54;22.70;93.70
7143;DHT22;3613;48.902;9.204;2022-09-09T15:36:40;22.50;93.80
7143;DHT22;3613;48.902;9.204;2022-09-09T15:39:10;22.50;93.80
7143;DHT22;3613;48.902;9.204;2022-09-09T15:41:38;22.70;93.80
7143;DHT22;3613;48.902;9.204;2022-09-09T15:44:04;22.70;92.80
7143;DHT22;3613;48.902;9.204;2022-09-09T15:46:33;22.60;92.60
7143;DHT22;3613;48.902;9.204;2022-09-09T15:51:32;22.50;92.30
7143;DHT22;3613;48.902;9.204;2022-09-09T15:53:59;22.30;92.40
7143;DHT22;3613;48.902;9.204;2022-09-09T15:56:28;22.20;92.90
7143;DHT22;3613;48.902;9.204;2022-09-09T15:58:58;22.00;93.70
7143;DHT22;3613;48.902;9.204;2022-09-09T16:01:26;21.70;94.00
7143;DHT22;3613;48.902;9.204;2022-09-09T16:03:52;21.60;94.70
7143;DHT22;3613;48.902;9.204;2022-09-09T16:06:22;21.40;95.40
7143;DHT22;3613;48.902;9.204;2022-09-09T16:08:50;21.30;95.80
7143;DHT22;3613;48.902;9.204;2022-09-09T16:11:28;21.20;97.40
7143;DHT22;3613;48.902;9.204;2022-09-09T16:13:55;21.10;97.80
7143;DHT22;3613;48.902;9.204;2022-09-09T16:16:26;20.70;98.30
7143;DHT22;3613;48.902;9.204;2022-09-09T16:18:55;21.00;99.40
7143;DHT22;3613;48.902;9.204;2022-09-09T16:21:32;21.00;99.80
7143;DHT22;3613;48.902;9.204;2022-09-09T16:24:00;20.90;99.90
7143;DHT22;3613;48.902;9.204;2022-09-09T16:26:29;20.80;99.90
7143;DHT22;3613;48.902;9.204;2022-09-09T16:28:56;20.60;99.90
7143;DHT22;3613;48.902;9.204;2022-09-09T16:31:24;20.20;99.90
7143;DHT22;3613;48.902;9.204;2022-09-09T16:33:51;19.80;99.90
7143;DHT22;3613;48.902;9.204;2022-09-09T16:36:28;19.40;99.90
7143;DHT22;3613;48.902;9.204;2022-09-09T16:38:57;19.10;99.90
7143;DHT22;3613;48.902;9.204;2022-09-09T16:41:27;18.50;99.90
7143;DHT22;3613;48.902;9.204;2022-09-09T16:43:54;17.40;99.90
7143;DHT22;3613;48.902;9.204;2022-09-09T16:46:21;16.70;99.90
7143;DHT22;3613;48.902;9.204;2022-09-09T16:48:50;16.30;99.90
7143;DHT22;3613;48.902;9.204;2022-09-09T16:51:20;15.80;99.90
7143;DHT22;3613;48.902;9.204;2022-09-09T16:53:49;15.60;99.90
7143;DHT22;3613;48.902;9.204;2022-09-09T16:56:21;15.50;99.90
7143;DHT22;3613;48.902;9.204;2022-09-09T16:58:52;15.30;99.90
7143;DHT22;3613;48.902;9.204;2022-09-09T17:01:19;15.20;99.90
7143;DHT22;3613;48.902;9.204;2022-09-09T17:03:47;15.10;99.90
7143;DHT22;3613;48.902;9.204;2022-09-09T17:06:17;15.10;99.90
7143;DHT22;3613;48.902;9.204;2022-09-09T17:08:43;15.10;99.90
7143;DHT22;3613;48.902;9.204;2022-09-09T17:11:13;15.10;99.90
7143;DHT22;3613;48.902;9.204;2022-09-09T17:13:43;15.20;99.90
7143;DHT22;3613;48.902;9.204;2022-09-09T17:16:09;15.10;99.90
7143;DHT22;3613;48.902;9.204;2022-09-09T17:18:38;15.20;99.90
7143;DHT22;3613;48.902;9.204;2022-09-09T17:21:14;15.10;99.90
7143;DHT22;3613;48.902;9.204;2022-09-09T17:23:41;15.00;99.90
7143;DHT22;3613;48.902;9.204;2022-09-09T17:26:08;14.90;99.90
7143;DHT22;3613;48.902;9.204;2022-09-09T17:28:38;14.90;99.90
7143;DHT22;3613;48.902;9.204;2022-09-09T17:31:08;14.70;99.90
7143;DHT22;3613;48.902;9.204;2022-09-09T17:33:38;14.60;99.90
7143;DHT22;3613;48.902;9.204;2022-09-09T17:36:13;14.50;99.90
7143;DHT22;3613;48.902;9.204;2022-09-09T17:38:39;14.60;99.90
7143;DHT22;3613;48.902;9.204;2022-09-09T17:43:33;14.50;99.90
7143;DHT22;3613;48.902;9.204;2022-09-09T17:46:27;14.50;99.90
7143;DHT22;3613;48.902;9.204;2022-09-09T17:48:57;14.50;99.90
7143;DHT22;3613;48.902;9.204;2022-09-09T17:51:25;14.50;99.90
7143;DHT22;3613;48.902;9.204;2022-09-09T17:53:54;14.50;99.90
7143;DHT22;3613;48.902;9.204;2022-09-09T17:56:21;14.60;99.90
7143;DHT22;3613;48.902;9.204;2022-09-09T17:58:48;14.60;99.90
7143;DHT22;3613;48.902;9.204;2022-09-09T18:01:20;14.60;99.90
7143;DHT22;3613;48.902;9.204;2022-09-09T18:03:48;14.60;99.90
7143;DHT22;3613;48.902;9.204;2022-09-09T18:06:22;14.50;99.90
7143;DHT22;3613;48.902;9.204;2022-09-09T18:08:52;14.60;99.90
7143;DHT22;3613;48.902;9.204;2022-09-09T18:11:20;14.60;99.90
7143;DHT22;3613;48.902;9.204;2022-09-09T18:13:57;14.60;99.90
7143;DHT22;3613;48.902;9.204;2022-09-09T18:16:26;14.60;99.90
7143;DHT22;3613;48.902;9.204;2022-09-09T18:18:53;14.60;99.90
7143;DHT22;3613;48.902;9.204;2022-09-09T18:21:19;14.60;99.90
7143;DHT22;3613;48.902;9.204;2022-09-09T18:23:45;14.70;99.90
7143;DHT22;3613;48.902;9.204;2022-09-09T18:26:19;14.80;99.90
7143;DHT22;3613;48.902;9.204;2022-09-09T18:28:50;14.90;99.90
7143;DHT22;3613;48.902;9.204;2022-09-09T18:31:20;15.10;99.90
7143;DHT22;3613;48.902;9.204;2022-09-09T18:33:48;15.10;99.90
7143;DHT22;3613;48.902;9.204;2022-09-09T18:36:20;15.10;99.90
7143;DHT22;3613;48.902;9.204;2022-09-09T18:38:46;15.20;99.90
7143;DHT22;3613;48.902;9.204;2022-09-09T18:41:26;15.20;99.90
7143;DHT22;3613;48.902;9.204;2022-09-09T18:43:56;15.20;99.90
7143;DHT22;3613;48.902;9.204;2022-09-09T18:46:22;15.20;99.90
7143;DHT22;3613;48.902;9.204;2022-09-09T18:48:49;15.20;99.90